Time;durP1;ratioP1;P1;durP2;ratioP2;P2;SDS_P1;SDS_P2;PMS_P1;PMS_P2;Temp;Humidity;BMP_temperature;BMP_pressure;BME280_temperature;BME280_humidity;BME280_pressure;Samples;Min_cycle;Max_cycle;Signal;HPM_P1;HPM_P2
2021/11/16 00:00:44;;;;;;;33.60;15.25;;;;;;;10.05;59.05;102482.31;5015305;28;119105;-70
2021/11/16 00:03:11;;;;;;;34.67;15.10;;;;;;;10.07;59.23;102483.16;5019305;28;124788;-69
2021/11/16 00:05:39;;;;;;;34.47;15.38;;;;;;;10.09;58.84;102484.00;5010319;28;124678;-69
2021/11/16 00:08:07;;;;;;;30.48;14.60;;;;;;;10.10;58.84;102480.47;5015014;28;120536;-69
2021/11/16 00:10:36;;;;;;;35.20;14.95;;;;;;;10.11;58.89;102476.91;5022051;28;120264;-69
2021/11/16 00:13:10;;;;;;;32.25;15.63;;;;;;;10.12;58.73;102479.53;5026947;28;124717;-70
2021/11/16 00:15:40;;;;;;;32.90;14.80;;;;;;;10.11;58.75;102476.91;5017722;28;123736;-69
2021/11/16 00:18:10;;;;;;;34.30;15.40;;;;;;;10.10;58.77;102476.03;5015531;28;119546;-69
2021/11/16 00:20:45;;;;;;;36.85;15.55;;;;;;;10.12;59.02;102478.69;5019196;28;119420;-69
2021/11/16 00:23:17;;;;;;;34.75;15.88;;;;;;;10.10;58.77;102464.59;5004591;28;122988;-69
2021/11/16 00:25:47;;;;;;;37.05;16.15;;;;;;;10.06;58.88;102468.19;5018226;27;122081;-69
2021/11/16 00:28:14;;;;;;;36.15;15.77;;;;;;;10.02;58.64;102466.47;5021052;28;118217;-69
2021/11/16 00:30:41;;;;;;;36.78;15.60;;;;;;;10.02;58.82;102466.47;5020337;28;119333;-69
2021/11/16 00:33:10;;;;;;;32.25;15.25;;;;;;;10.02;58.77;102463.81;5024249;28;123905;-69
2021/11/16 00:35:38;;;;;;;35.65;15.25;;;;;;;10.02;59.14;102458.53;5023228;28;123715;-69
2021/11/16 00:38:08;;;;;;;32.92;15.05;;;;;;;10.05;59.18;102455.84;5020288;28;119564;-69
2021/11/16 00:40:37;;;;;;;33.90;15.27;;;;;;;10.09;59.00;102453.09;5014443;28;119758;-69
2021/11/16 00:43:08;;;;;;;30.35;15.02;;;;;;;10.11;58.77;102459.28;5015638;28;125930;-69
2021/11/16 00:45:38;;;;;;;36.13;15.10;;;;;;;10.12;58.85;102449.56;5010546;28;124806;-69
2021/11/16 00:48:07;;;;;;;33.38;15.10;;;;;;;10.12;58.66;102446.91;5015157;28;120146;-69
2021/11/16 00:50:36;;;;;;;35.58;16.00;;;;;;;10.11;58.96;102446.03;5023161;28;118047;-69
2021/11/16 00:53:04;;;;;;;34.90;15.35;;;;;;;10.12;58.68;102437.19;5016059;28;124271;-69
2021/11/16 00:55:32;;;;;;;34.40;15.23;;;;;;;10.15;58.76;102441.53;5017304;28;123992;-69
2021/11/16 00:57:59;;;;;;;35.05;15.68;;;;;;;10.17;58.83;102442.41;5016958;28;119983;-69
2021/11/16 01:00:27;;;;;;;33.17;15.57;;;;;;;10.18;59.02;102438.84;5014755;28;120781;-69
2021/11/16 01:02:55;;;;;;;33.80;15.68;;;;;;;10.18;58.52;102444.13;5020774;28;125435;-70
2021/11/16 01:05:23;;;;;;;35.60;15.32;;;;;;;10.15;58.79;102436.25;5014469;28;124007;-70
2021/11/16 01:07:50;;;;;;;35.60;15.38;;;;;;;10.17;58.83;102438.88;5019942;28;119370;-70
2021/11/16 01:10:20;;;;;;;32.20;15.38;;;;;;;10.15;58.99;102436.25;5016258;28;119896;-70
2021/11/16 01:12:47;;;;;;;38.22;15.77;;;;;;;10.15;59.04;102438.88;5016756;28;123931;-69
2021/11/16 01:15:17;;;;;;;36.78;15.30;;;;;;;10.16;58.83;102435.34;5024970;28;124363;-69
2021/11/16 01:17:45;;;;;;;33.08;15.43;;;;;;;10.17;58.82;102434.47;5015208;28;119390;-70
2021/11/16 01:20:15;;;;;;;31.88;15.35;;;;;;;10.17;58.84;102429.19;5026931;28;118192;-69
2021/11/16 01:22:43;;;;;;;36.58;16.30;;;;;;;10.13;58.80;102427.44;5013761;28;123852;-70
2021/11/16 01:25:11;;;;;;;37.85;15.95;;;;;;;10.08;58.76;102424.03;5024064;28;124229;-69
2021/11/16 01:27:39;;;;;;;38.00;15.93;;;;;;;10.06;58.70;102415.25;5020251;28;119369;-70
2021/11/16 01:30:11;;;;;;;38.13;16.10;;;;;;;10.03;58.58;102415.28;5020508;28;118146;-69
2021/11/16 01:33:02;;;;;;;35.55;15.73;;;;;;;10.00;58.99;102416.22;5017164;28;124017;-70
2021/11/16 01:35:31;;;;;;;40.85;16.38;;;;;;;10.00;58.92;102415.34;5024169;28;122920;-69
2021/11/16 01:37:58;;;;;;;35.08;15.57;;;;;;;9.99;59.02;102414.47;5018787;28;119489;-70
2021/11/16 01:40:25;;;;;;;36.45;16.42;;;;;;;9.98;58.78;102417.13;5019428;28;118840;-69
2021/11/16 01:42:53;;;;;;;37.83;16.05;;;;;;;9.96;58.57;102418.94;5020080;28;123912;-70
2021/11/16 01:45:21;;;;;;;35.67;15.88;;;;;;;9.96;59.05;102413.66;5022630;28;123726;-70
2021/11/16 01:47:49;;;;;;;41.88;16.60;;;;;;;9.98;58.86;102411.84;5023055;28;120211;-69
2021/11/16 01:50:19;;;;;;;37.90;16.63;;;;;;;10.00;59.22;102410.94;5023303;28;119274;-70
2021/11/16 01:52:47;;;;;;;40.05;16.63;;;;;;;10.04;59.00;102401.13;5023038;28;124363;-70
2021/11/16 01:55:18;;;;;;;33.53;15.38;;;;;;;10.07;58.82;102403.75;5019874;28;123499;-70
2021/11/16 01:57:46;;;;;;;35.85;16.15;;;;;;;10.10;58.72;102390.47;5014224;28;119300;-70
2021/11/16 02:00:18;;;;;;;37.72;16.38;;;;;;;10.11;59.08;102402.78;5022056;28;118589;-70
2021/11/16 02:02:46;;;;;;;38.22;16.48;;;;;;;10.12;59.00;102393.97;5021492;28;123216;-70
2021/11/16 02:05:14;;;;;;;37.58;16.15;;;;;;;10.11;59.18;102386.91;5027698;28;122909;-70
2021/11/16 02:07:44;;;;;;;37.65;16.35;;;;;;;10.11;58.89;102392.19;5012368;28;119092;-70
2021/11/16 02:10:12;;;;;;;39.78;16.95;;;;;;;10.12;58.94;102388.66;5020714;28;118993;-71
2021/11/16 02:12:40;;;;;;;39.83;17.17;;;;;;;10.12;58.87;102393.97;5024858;28;123705;-70
2021/11/16 02:15:11;;;;;;;37.22;15.57;;;;;;;10.12;58.81;102401.91;5017359;28;124682;-72
2021/11/16 02:17:38;;;;;;;34.33;15.93;;;;;;;10.12;58.66;102388.66;5018165;28;119780;-70
2021/11/16 02:20:07;;;;;;;40.00;17.08;;;;;;;10.09;58.76;102386.06;5022065;28;119541;-69
2021/11/16 02:22:34;;;;;;;39.35;16.52;;;;;;;10.09;58.91;102391.34;5025540;27;123187;-69
2021/11/16 02:25:04;;;;;;;34.38;15.50;;;;;;;10.08;59.01;102386.97;5016431;28;123797;-70
2021/11/16 02:27:32;;;;;;;35.22;16.20;;;;;;;10.07;59.13;102395.81;5017503;27;118392;-70
2021/11/16 02:29:59;;;;;;;35.55;15.95;;;;;;;10.09;59.20;102388.72;5019964;28;118932;-70
2021/11/16 02:32:30;;;;;;;35.85;16.17;;;;;;;10.12;58.71;102386.00;5017120;28;123441;-70
2021/11/16 02:34:58;;;;;;;34.05;15.43;;;;;;;10.14;58.88;102386.84;5020339;28;124093;-70
2021/11/16 02:37:31;;;;;;;37.30;16.52;;;;;;;10.18;59.11;102383.25;5022468;28;120432;-70
2021/11/16 02:40:03;;;;;;;36.58;15.68;;;;;;;10.19;58.84;102385.00;5020672;28;120092;-69
2021/11/16 02:42:34;;;;;;;34.08;16.13;;;;;;;10.19;58.96;102385.00;5034973;27;123178;-70
2021/11/16 02:45:02;;;;;;;36.88;15.68;;;;;;;10.21;58.80;102384.94;5011940;28;124279;-70
2021/11/16 02:47:31;;;;;;;36.88;15.50;;;;;;;10.22;59.00;102384.94;5013484;28;119404;-71
2021/11/16 02:49:58;;;;;;;38.40;16.42;;;;;;;10.23;58.65;102380.53;5015221;28;119719;-70
2021/11/16 02:52:26;;;;;;;39.72;16.52;;;;;;;10.23;58.72;102378.75;5021357;28;124063;-69
2021/11/16 02:54:54;;;;;;;38.03;15.27;;;;;;;10.22;58.64;102384.94;5016474;28;123741;-70
2021/11/16 02:57:23;;;;;;;38.08;17.08;;;;;;;10.20;58.60;102384.09;5007784;28;118359;-71
2021/11/16 02:59:51;;;;;;;37.28;16.27;;;;;;;10.19;58.45;102384.09;5020125;28;120003;-69
2021/11/16 03:02:19;;;;;;;37.90;16.20;;;;;;;10.14;58.81;102381.56;5019706;28;124659;-70
2021/11/16 03:04:46;;;;;;;38.85;16.90;;;;;;;10.14;58.59;102373.63;5015115;28;123861;-69
2021/11/16 03:07:28;;;;;;;35.58;15.80;;;;;;;10.11;58.63;102382.50;5026141;28;119980;-69
2021/11/16 03:09:56;;;;;;;39.55;16.35;;;;;;;10.11;58.75;102376.31;5020812;28;119149;-70
2021/11/16 03:12:26;;;;;;;40.00;17.25;;;;;;;10.10;58.89;102374.59;5017794;28;124388;-69
2021/11/16 03:14:53;;;;;;;40.92;17.23;;;;;;;10.07;58.92;102374.63;5015635;28;123704;-69
2021/11/16 03:17:21;;;;;;;38.33;16.67;;;;;;;10.06;59.01;102372.91;5019296;28;119147;-70
2021/11/16 03:19:48;;;;;;;37.30;16.23;;;;;;;10.05;58.89;102366.72;5023003;28;118801;-70
2021/11/16 03:22:16;;;;;;;39.10;16.65;;;;;;;10.07;58.98;102364.91;5022851;28;123341;-69
2021/11/16 03:24:43;;;;;;;38.33;15.02;;;;;;;10.10;58.97;102369.28;5016731;28;124151;-69
2021/11/16 03:27:14;;;;;;;36.67;16.10;;;;;;;10.13;59.00;102363.91;5014319;28;120073;-69
2021/11/16 03:29:47;;;;;;;33.40;15.43;;;;;;;10.16;58.81;102369.16;5015900;28;120235;-69
2021/11/16 03:32:19;;;;;;;37.25;16.23;;;;;;;10.16;59.02;102369.16;5021679;28;123236;-69
2021/11/16 03:34:48;;;;;;;39.25;16.35;;;;;;;10.17;58.74;102362.97;5028252;28;122729;-70
2021/11/16 03:37:20;;;;;;;36.28;16.20;;;;;;;10.19;58.87;102369.13;5017064;28;120014;-69
2021/11/16 03:39:53;;;;;;;39.45;16.17;;;;;;;10.20;59.02;102365.56;5011076;28;120693;-70
2021/11/16 03:42:20;;;;;;;37.33;15.75;;;;;;;10.22;58.87;102366.41;5016473;28;124531;-69
2021/11/16 03:44:48;;;;;;;37.92;16.45;;;;;;;10.24;59.31;102367.22;5006844;28;122959;-70
2021/11/16 03:47:17;;;;;;;37.67;16.13;;;;;;;10.25;58.74;102363.69;5018748;28;118980;-69
2021/11/16 03:49:44;;;;;;;38.53;15.77;;;;;;;10.26;59.05;102362.78;5022696;28;119281;-69
2021/11/16 03:52:13;;;;;;;38.53;16.95;;;;;;;10.25;58.81;102355.75;5015248;28;125432;-69
2021/11/16 03:54:40;;;;;;;40.97;16.52;;;;;;;10.23;58.53;102364.66;5020766;28;123780;-69
2021/11/16 03:57:08;;;;;;;43.55;17.42;;;;;;;10.20;58.83;102360.25;5020044;28;119997;-69
2021/11/16 03:59:36;;;;;;;39.13;16.77;;;;;;;10.18;58.77;102362.06;5015054;28;119419;-69
2021/11/16 04:02:03;;;;;;;41.25;17.55;;;;;;;10.15;58.71;102356.81;5020728;28;123958;-69
2021/11/16 04:04:32;;;;;;;38.83;16.42;;;;;;;10.11;58.61;102360.44;5015911;28;124285;-69
2021/11/16 04:06:59;;;;;;;39.92;17.30;;;;;;;10.10;58.77;102369.28;5013569;28;119563;-69
2021/11/16 04:09:26;;;;;;;37.03;16.40;;;;;;;10.06;59.04;102367.59;5008680;28;118073;-71
2021/11/16 04:11:53;;;;;;;38.03;15.75;;;;;;;10.07;58.66;102369.34;5011897;28;124245;-69
2021/11/16 04:14:21;;;;;;;43.35;17.77;;;;;;;10.09;59.13;102370.19;5005351;28;123372;-69
2021/11/16 04:16:49;;;;;;;42.75;17.33;;;;;;;10.11;59.14;102365.72;5016939;28;120816;-69
2021/11/16 04:19:17;;;;;;;41.47;16.98;;;;;;;10.12;58.90;102355.09;5017255;28;120452;-69
2021/11/16 04:21:46;;;;;;;38.90;16.17;;;;;;;10.12;58.68;102362.19;5012973;28;124713;-70
2021/11/16 04:24:14;;;;;;;44.00;17.48;;;;;;;10.11;58.76;102365.72;5021820;28;122977;-69
2021/11/16 04:26:42;;;;;;;39.20;15.70;;;;;;;10.09;58.86;102362.22;5017959;28;119340;-69
2021/11/16 04:29:09;;;;;;;40.70;17.02;;;;;;;10.03;58.58;102357.94;5023930;28;118994;-69
2021/11/16 04:31:37;;;;;;;45.38;16.95;;;;;;;10.03;58.78;102351.78;5023081;28;124768;-69
2021/11/16 04:34:06;;;;;;;37.20;15.57;;;;;;;10.00;58.73;102352.72;5022293;28;124661;-69
2021/11/16 04:36:35;;;;;;;42.97;16.65;;;;;;;9.99;58.99;102360.66;5027770;28;118191;-69
2021/11/16 04:39:07;;;;;;;38.78;15.77;;;;;;;9.97;58.88;102362.47;5023377;28;119513;-69
2021/11/16 04:41:36;;;;;;;41.55;16.30;;;;;;;9.93;58.99;102357.22;5021015;28;124242;-69
2021/11/16 04:44:06;;;;;;;41.78;15.45;;;;;;;9.91;58.82;102355.53;5022907;28;123937;-69
2021/11/16 04:46:33;;;;;;;40.53;16.58;;;;;;;9.89;58.96;102354.69;5023697;28;119206;-68
2021/11/16 04:49:07;;;;;;;42.75;16.17;;;;;;;9.88;58.97;102352.91;5022737;28;119047;-69
2021/11/16 04:59:56;;;;;;;46.95;16.83;;;;;;;9.88;59.37;102345.84;5028917;28;119096;-69
2021/11/16 05:02:43;;;;;;;42.95;16.73;;;;;;;9.87;59.33;102352.06;5007745;28;123034;-69
2021/11/16 05:05:16;;;;;;;46.70;16.75;;;;;;;9.89;59.40;102352.91;5020608;28;125982;-70
2021/11/16 05:07:54;;;;;;;42.90;15.95;;;;;;;9.93;59.42;102346.63;5024228;28;120687;-69
2021/11/16 05:10:22;;;;;;;42.20;16.35;;;;;;;9.96;59.50;102355.41;5022540;28;120224;-70
2021/11/16 05:12:50;;;;;;;38.08;16.45;;;;;;;9.99;59.38;102355.38;5028187;28;125243;-69
2021/11/16 05:15:19;;;;;;;40.88;16.90;;;;;;;10.02;59.28;102352.66;5025800;28;123883;-72
2021/11/16 05:17:48;;;;;;;42.97;16.85;;;;;;;10.02;59.37;102358.84;5019887;28;119942;-69
2021/11/16 05:20:17;;;;;;;38.25;16.48;;;;;;;10.06;59.36;102363.19;5022629;28;119875;-69
2021/11/16 05:22:48;;;;;;;41.30;16.85;;;;;;;10.09;59.06;102364.88;5029526;28;123782;-69
2021/11/16 05:25:16;;;;;;;39.53;15.00;;;;;;;10.09;59.41;102362.22;5028692;28;124440;-69
2021/11/16 05:27:43;;;;;;;46.70;16.17;;;;;;;10.11;59.35;102371.03;5038055;27;118133;-69
2021/11/16 05:30:13;;;;;;;41.95;16.40;;;;;;;10.12;59.04;102362.19;5026504;28;117955;-69
2021/11/16 05:32:42;;;;;;;38.70;15.82;;;;;;;10.13;59.15;102369.22;5027595;28;123872;-69
2021/11/16 05:35:11;;;;;;;43.10;17.10;;;;;;;10.12;58.86;102364.84;5029117;28;123279;-69
2021/11/16 05:37:41;;;;;;;42.47;16.10;;;;;;;10.10;59.19;102369.28;5025281;28;119739;-70
2021/11/16 05:40:09;;;;;;;44.15;16.48;;;;;;;10.10;59.22;102379.88;5030522;28;119006;-69
2021/11/16 05:42:36;;;;;;;43.80;16.05;;;;;;;10.07;59.03;102374.63;5027053;28;123991;-69
2021/11/16 05:45:05;;;;;;;43.75;16.23;;;;;;;10.04;59.02;102364.09;5026773;27;123052;-69
2021/11/16 05:47:35;;;;;;;42.30;16.02;;;;;;;10.03;59.28;102372.94;5017628;28;119416;-69
2021/11/16 05:50:06;;;;;;;42.08;16.38;;;;;;;10.01;59.26;102369.44;5024169;28;117940;-69
2021/11/16 05:52:34;;;;;;;39.42;15.65;;;;;;;10.02;59.03;102365.88;5026335;28;123199;-69
2021/11/16 05:55:02;;;;;;;41.30;16.40;;;;;;;10.00;59.34;102370.34;5025244;28;123219;-69
2021/11/16 05:57:30;;;;;;;40.30;15.73;;;;;;;10.00;59.45;102378.28;5024946;28;120452;-69
2021/11/16 05:59:57;;;;;;;43.85;16.20;;;;;;;10.00;59.50;102378.28;5026691;28;118862;-69
2021/11/16 06:02:24;;;;;;;41.10;15.95;;;;;;;9.99;59.32;102365.97;5023804;28;124061;-69
2021/11/16 06:04:51;;;;;;;44.17;15.50;;;;;;;10.00;59.51;102367.69;5021984;28;124030;-70
2021/11/16 06:07:19;;;;;;;40.60;15.70;;;;;;;9.99;59.38;102371.25;5019797;28;119180;-70
2021/11/16 06:09:46;;;;;;;42.47;16.20;;;;;;;10.00;59.40;102367.69;5021179;28;119801;-69
2021/11/16 06:12:13;;;;;;;43.33;16.27;;;;;;;10.00;59.15;102367.69;5015648;28;124085;-70
2021/11/16 06:14:40;;;;;;;39.92;15.98;;;;;;;10.00;59.31;102367.69;5025587;28;122715;-69
2021/11/16 06:17:08;;;;;;;43.85;15.93;;;;;;;10.02;59.58;102365.88;5027142;28;120113;-70
2021/11/16 06:19:37;;;;;;;43.50;16.40;;;;;;;10.02;59.48;102360.59;5021839;28;119815;-69
2021/11/16 06:22:12;;;;;;;41.65;15.77;;;;;;;10.01;59.14;102359.72;5019844;28;124196;-70
2021/11/16 06:24:39;;;;;;;43.87;16.10;;;;;;;10.00;59.49;102358.00;5015977;28;124527;-69
2021/11/16 06:27:07;;;;;;;44.70;15.93;;;;;;;10.02;59.59;102365.88;5012688;28;118544;-69
2021/11/16 06:29:34;;;;;;;39.60;15.68;;;;;;;10.02;59.43;102371.19;5021201;28;119019;-69
2021/11/16 06:32:08;;;;;;;45.55;16.48;;;;;;;10.02;59.52;102365.88;5016013;28;124113;-69
2021/11/16 06:34:36;;;;;;;40.75;15.52;;;;;;;10.01;59.46;102359.72;5022091;28;124408;-69
2021/11/16 06:37:04;;;;;;;45.17;16.42;;;;;;;10.02;59.14;102365.88;5024924;28;119126;-69
2021/11/16 06:39:32;;;;;;;40.83;15.88;;;;;;;10.02;59.38;102365.88;5022336;28;118872;-69
2021/11/16 06:42:01;;;;;;;45.15;16.05;;;;;;;10.02;59.58;102365.88;5023783;28;124033;-69
2021/11/16 06:44:29;;;;;;;41.00;15.43;;;;;;;10.02;59.23;102365.88;5026822;28;124092;-69
2021/11/16 06:46:57;;;;;;;42.85;15.88;;;;;;;10.01;59.16;102370.31;5017605;28;120259;-69
2021/11/16 06:49:24;;;;;;;42.72;15.70;;;;;;;10.01;59.27;102364.16;5021819;28;119817;-70
2021/11/16 06:51:54;;;;;;;41.20;15.63;;;;;;;10.01;59.03;102365.03;5016444;28;124753;-69
2021/11/16 06:54:23;;;;;;;42.70;16.13;;;;;;;10.00;59.13;102367.69;5019747;28;124204;-70
2021/11/16 06:56:52;;;;;;;42.72;15.77;;;;;;;9.99;59.44;102371.25;5022972;28;119274;-69
2021/11/16 06:59:22;;;;;;;43.72;16.80;;;;;;;9.97;59.29;102376.56;5023620;28;118862;-69
2021/11/16 07:01:50;;;;;;;41.33;15.27;;;;;;;9.97;59.33;102367.78;5013456;28;124181;-71
2021/11/16 07:04:18;;;;;;;46.40;16.13;;;;;;;9.96;59.58;102373.94;5015424;28;124268;-70
2021/11/16 07:06:50;;;;;;;45.60;17.25;;;;;;;9.97;59.37;102362.47;5024134;28;120059;-70
2021/11/16 07:09:19;;;;;;;43.45;16.33;;;;;;;9.99;59.10;102365.97;5023177;28;118822;-70
2021/11/16 07:11:49;;;;;;;44.33;16.67;;;;;;;10.02;59.52;102365.88;5025506;28;124364;-70
2021/11/16 07:14:26;;;;;;;45.95;16.48;;;;;;;10.03;58.94;102367.66;5012523;28;123717;-70
2021/11/16 07:16:53;;;;;;;43.03;16.25;;;;;;;10.03;59.11;102367.66;5020258;28;118956;-70
2021/11/16 07:19:32;;;;;;;42.80;15.85;;;;;;;10.03;59.02;102367.66;5025630;28;119096;-72
2021/11/16 07:22:04;;;;;;;44.58;15.98;;;;;;;10.03;59.27;102370.28;5021613;28;123833;-71
2021/11/16 07:24:40;;;;;;;46.13;16.15;;;;;;;10.01;59.25;102369.44;5020153;28;124259;-71
2021/11/16 07:27:07;;;;;;;47.63;17.35;;;;;;;10.00;59.43;102373.88;5015260;28;119601;-71
2021/11/16 07:29:53;;;;;;;44.97;17.33;;;;;;;9.96;59.26;102376.59;5024283;28;119050;-70
2021/11/16 07:32:26;;;;;;;;;;;;;;;9.91;59.04;102368.75;5013316;28;124382;-70
2021/11/16 07:35:00;;;;;;;44.75;15.57;;;;;;;9.91;59.11;102374.91;5014325;28;123935;-70
2021/11/16 07:37:29;;;;;;;44.95;15.38;;;;;;;9.90;59.25;102378.44;5021502;28;120423;-70
2021/11/16 07:40:02;;;;;;;38.38;14.80;;;;;;;9.90;59.33;102374.94;5018051;28;119921;-70
2021/11/16 07:42:59;;;;;;;42.92;15.40;;;;;;;9.88;59.45;102380.25;5009727;28;124502;-69
2021/11/16 07:45:26;;;;;;;43.25;16.08;;;;;;;9.88;59.29;102374.94;5015704;28;122896;-69
2021/11/16 07:47:56;;;;;;;40.28;14.95;;;;;;;9.91;59.38;102385.50;5012356;28;119943;-69
2021/11/16 07:50:29;;;;;;;39.75;15.48;;;;;;;9.93;59.52;102378.41;5016055;28;118267;-69
2021/11/16 07:53:28;;;;;;;39.80;15.15;;;;;;;9.96;59.66;102379.25;5012050;28;123849;-69
2021/11/16 07:56:00;;;;;;;45.38;16.23;;;;;;;9.97;59.64;102378.34;5011816;28;123800;-69
2021/11/16 07:58:35;;;;;;;39.50;15.15;;;;;;;9.98;59.60;102380.09;5013215;28;119319;-69
2021/11/16 08:09:42;;;;;;;44.05;15.88;;;;;;;10.03;59.40;102372.94;5016197;28;119035;-69
2021/11/16 08:14:59;;;;;;;42.60;15.93;;;;;;;10.05;59.58;102376.44;5026539;28;124028;-70
2021/11/16 08:17:28;;;;;;;42.00;15.20;;;;;;;10.05;59.55;102371.13;5017346;28;123759;-70
2021/11/16 08:20:01;;;;;;;39.88;14.25;;;;;;;10.06;59.49;102370.25;5011482;28;119694;-69
2021/11/16 08:22:28;;;;;;;38.67;14.85;;;;;;;10.07;59.53;102364.91;5012573;28;119206;-69
2021/11/16 08:24:56;;;;;;;44.47;15.02;;;;;;;10.08;59.40;102363.16;5014418;28;124396;-69
2021/11/16 08:27:50;;;;;;;38.88;14.07;;;;;;;10.06;59.39;102362.31;5013779;28;124428;-70
2021/11/16 08:30:22;;;;;;;43.35;14.82;;;;;;;10.07;59.48;102356.09;5013950;27;120912;-69
2021/11/16 08:32:57;;;;;;;41.80;15.70;;;;;;;10.06;59.44;102362.31;5012569;28;119839;-69
2021/11/16 08:35:25;;;;;;;38.92;14.35;;;;;;;10.06;59.63;102362.31;5012504;28;124056;-69
2021/11/16 08:38:00;;;;;;;37.58;14.32;;;;;;;10.08;59.76;102355.22;5021219;28;124681;-69
2021/11/16 08:40:32;;;;;;;40.05;13.85;;;;;;;10.10;59.51;102353.41;5018242;28;119242;-69
2021/11/16 08:43:04;;;;;;;37.80;14.43;;;;;;;10.11;59.42;102355.13;5020572;28;119687;-69
2021/11/16 08:45:35;;;;;;;38.17;14.35;;;;;;;10.11;59.63;102349.84;5013914;28;123954;-69
2021/11/16 08:48:12;;;;;;;40.75;14.30;;;;;;;10.11;59.33;102349.84;5012470;28;123899;-70
2021/11/16 08:50:46;;;;;;;43.13;15.07;;;;;;;10.11;59.48;102349.84;5016371;28;119055;-70
2021/11/16 08:53:20;;;;;;;39.72;14.07;;;;;;;10.12;59.31;102352.47;5009950;28;117830;-70
2021/11/16 08:55:48;;;;;;;42.22;15.40;;;;;;;10.12;59.50;102351.59;5005743;28;124115;-70
2021/11/16 08:58:16;;;;;;;39.05;15.10;;;;;;;10.12;59.48;102351.59;5008465;28;123726;-69
2021/11/16 09:00:50;;;;;;;41.28;14.93;;;;;;;10.11;59.56;102349.84;5019712;28;119808;-69
2021/11/16 09:03:26;;;;;;;39.20;15.13;;;;;;;10.12;59.69;102347.16;5015441;28;119013;-70
2021/11/16 09:05:54;;;;;;;39.00;14.95;;;;;;;10.14;59.48;102349.78;5005835;28;124227;-70
2021/11/16 09:08:26;;;;;;;41.38;14.90;;;;;;;10.16;59.55;102353.28;5009687;28;123935;-69
2021/11/16 09:10:56;;;;;;;39.38;14.70;;;;;;;10.17;59.67;102349.75;5005039;28;120241;-69
2021/11/16 09:13:26;;;;;;;40.45;15.02;;;;;;;10.19;59.42;102347.94;5010988;28;121715;-70
2021/11/16 09:16:03;;;;;;;43.22;15.43;;;;;;;10.18;59.45;102346.19;5007972;28;124244;-69
2021/11/16 09:18:40;;;;;;;43.53;15.95;;;;;;;10.15;59.46;102346.22;5015761;28;123163;-70
2021/11/16 09:21:11;;;;;;;42.72;15.93;;;;;;;10.12;59.15;102336.56;5018963;28;120350;-68
2021/11/16 09:23:51;;;;;;;42.78;15.25;;;;;;;10.12;59.28;102341.00;5016809;28;120136;-70
2021/11/16 09:29:00;;;;;;;41.10;15.48;;;;;;;10.13;59.45;102338.34;5012005;28;123727;-70
2021/11/16 09:31:35;;;;;;;41.95;15.77;;;;;;;10.13;59.61;102329.50;5013255;28;119773;-70
2021/11/16 09:34:14;;;;;;;41.77;15.13;;;;;;;10.15;59.33;102325.03;5010883;28;119036;-69
2021/11/16 09:36:45;;;;;;;39.33;14.85;;;;;;;10.14;59.22;102329.47;5036067;27;124166;-69
2021/11/16 09:39:18;;;;;;;38.20;14.77;;;;;;;10.16;59.67;102334.75;5031300;28;123989;-69
2021/11/16 09:41:53;;;;;;;37.72;14.43;;;;;;;10.17;59.28;102333.84;5028515;28;119620;-69
2021/11/16 09:44:31;;;;;;;40.13;14.23;;;;;;;10.18;59.72;102335.59;5028593;28;119494;-69
2021/11/16 09:47:02;;;;;;;37.17;14.68;;;;;;;10.20;59.54;102336.44;5028349;28;123090;-74
2021/11/16 09:49:41;;;;;;;38.67;14.15;;;;;;;10.21;59.55;102335.53;5025520;28;123894;-69
2021/11/16 09:52:33;;;;;;;37.70;14.60;;;;;;;10.20;59.46;102333.78;5011202;28;119215;-69
2021/11/16 09:55:07;;;;;;;37.63;13.32;;;;;;;10.19;59.28;102332.06;5012426;28;119431;-69
2021/11/16 09:57:42;;;;;;;37.10;14.23;;;;;;;10.22;59.42;102337.25;5023297;27;122935;-69
2021/11/16 10:00:17;;;;;;;39.55;13.65;;;;;;;10.25;59.53;102333.72;5023140;28;124587;-69
2021/11/16 10:02:51;;;;;;;39.95;14.77;;;;;;;10.28;59.55;102325.69;5017512;28;119802;-69
2021/11/16 10:05:26;;;;;;;44.55;15.48;;;;;;;10.31;59.69;102326.53;5017046;28;118762;-69
2021/11/16 10:07:56;;;;;;;37.23;14.33;;;;;;;10.32;59.30;102323.00;5012163;28;124860;-69
2021/11/16 10:10:27;;;;;;;39.00;13.93;;;;;;;10.35;59.81;102321.19;5019356;28;123906;-69
2021/11/16 10:13:01;;;;;;;41.72;14.90;;;;;;;10.34;59.23;102315.03;5029851;28;120559;-69
2021/11/16 10:15:31;;;;;;;35.10;13.15;;;;;;;10.36;59.67;102312.31;5027812;28;119855;-69
2021/11/16 10:17:59;;;;;;;35.13;12.77;;;;;;;10.37;59.62;102314.06;5025401;28;123753;-69
2021/11/16 10:20:30;;;;;;;36.45;13.95;;;;;;;10.40;59.58;102316.69;5010151;28;123799;-69
2021/11/16 10:23:41;;;;;;;33.90;13.02;;;;;;;10.41;59.32;102305.16;5017265;28;119291;-69
2021/11/16 10:26:09;;;;;;;36.15;12.43;;;;;;;10.42;59.44;102301.63;5012431;28;118741;-69
2021/11/16 10:28:39;;;;;;;36.67;13.70;;;;;;;10.44;59.34;102300.66;5018455;28;123648;-69
2021/11/16 10:31:07;;;;;;;34.05;13.25;;;;;;;10.46;59.34;102309.47;5009828;28;124128;-69
2021/11/16 10:33:37;;;;;;;32.15;13.40;;;;;;;10.47;59.45;102305.91;5008810;28;119594;-70
2021/11/16 10:36:13;;;;;;;35.47;13.80;;;;;;;10.48;59.25;102297.03;5009021;28;118993;-70
2021/11/16 10:38:45;;;;;;;29.98;12.65;;;;;;;10.52;59.57;102295.22;5009495;28;124729;-70
2021/11/16 10:41:19;;;;;;;33.58;13.23;;;;;;;10.54;59.06;102296.03;5027090;28;124120;-69
2021/11/16 10:43:52;;;;;;;29.35;12.90;;;;;;;10.54;59.13;102285.44;5025755;28;119253;-70
2021/11/16 10:46:21;;;;;;;32.88;13.63;;;;;;;10.56;59.19;102286.28;5013747;28;119091;-70
2021/11/16 10:48:50;;;;;;;39.38;13.80;;;;;;;10.57;58.89;102284.50;5028038;28;124018;-70
2021/11/16 10:51:18;;;;;;;33.03;13.32;;;;;;;10.58;58.96;102281.81;5022469;28;123997;-70
2021/11/16 10:53:51;;;;;;;34.55;13.30;;;;;;;10.58;58.93;102279.16;5022352;28;119981;-69
2021/11/16 10:56:23;;;;;;;36.75;14.18;;;;;;;10.57;59.08;102274.78;5028363;28;119068;-69
2021/11/16 10:58:51;;;;;;;34.65;13.48;;;;;;;10.56;59.14;102273.03;5015952;28;123950;-70
2021/11/16 11:01:24;;;;;;;34.90;13.23;;;;;;;10.53;58.95;102267.81;5007954;28;125174;-70
2021/11/16 11:03:56;;;;;;;33.63;13.50;;;;;;;10.55;59.21;102265.13;5018838;28;120169;-70
2021/11/16 11:06:35;;;;;;;35.97;14.20;;;;;;;10.54;59.26;102269.56;5027053;28;119812;-70
2021/11/16 11:09:06;;;;;;;32.92;13.07;;;;;;;10.54;59.04;102264.25;5018509;28;124381;-70
2021/11/16 11:11:36;;;;;;;33.22;12.68;;;;;;;10.55;59.04;102260.72;5014760;28;123998;-70
2021/11/16 11:14:19;;;;;;;31.75;12.77;;;;;;;10.55;58.95;102260.72;5016549;28;118322;-70
2021/11/16 11:17:00;;;;;;;32.03;12.98;;;;;;;10.55;58.95;102260.72;5018239;28;118862;-70
2021/11/16 11:19:35;;;;;;;31.27;12.73;;;;;;;10.56;59.06;102251.84;5018573;28;124293;-70
2021/11/16 11:22:20;;;;;;;28.70;12.35;;;;;;;10.56;58.97;102251.84;5011182;28;124704;-70
2021/11/16 11:25:02;;;;;;;29.58;12.73;;;;;;;10.55;59.00;102250.13;5016851;28;119695;-70
2021/11/16 11:27:36;;;;;;;32.83;12.82;;;;;;;10.57;58.72;102253.59;5007350;28;118814;-70
2021/11/16 11:30:15;;;;;;;32.25;13.18;;;;;;;10.58;58.79;102239.44;5013359;28;123974;-70
2021/11/16 11:32:45;;;;;;;34.60;12.85;;;;;;;10.59;58.60;102246.50;5014975;28;124624;-69
2021/11/16 11:35:18;;;;;;;35.35;13.20;;;;;;;10.59;58.76;102245.63;5026197;28;118188;-69
2021/11/16 11:37:52;;;;;;;31.42;13.73;;;;;;;10.59;58.74;102246.50;5024984;28;119599;-69
2021/11/16 11:40:26;;;;;;;31.05;12.35;;;;;;;10.58;58.55;102234.13;5024620;28;124056;-70